Time;durP1;ratioP1;P1;durP2;ratioP2;P2;SDS_P1;SDS_P2;PMS_P1;PMS_P2;Temp;Humidity;BMP_temperature;BMP_pressure;BME280_temperature;BME280_humidity;BME280_pressure;Samples;Min_cycle;Max_cycle;Signal;HPM_P1;HPM_P2
2022/10/07 00:01:55;;;;;;;16.50;5.72;;;;;;;10.06;100.00;102422.38;5025064;28;20045;-78
2022/10/07 00:04:22;;;;;;;18.42;5.38;;;;;;;10.01;100.00;102417.06;5028184;28;20055;-78
2022/10/07 00:06:48;;;;;;;17.95;5.22;;;;;;;9.99;100.00;102405.53;5024544;28;20060;-78
2022/10/07 00:09:15;;;;;;;17.65;5.90;;;;;;;10.03;100.00;102406.44;5020339;28;20057;-79
2022/10/07 00:11:42;;;;;;;16.95;5.30;;;;;;;10.00;100.00;102409.91;5021241;28;20060;-79
2022/10/07 00:14:09;;;;;;;15.23;5.10;;;;;;;10.00;100.00;102407.16;5025129;28;20053;-78
2022/10/07 00:16:37;;;;;;;19.02;5.60;;;;;;;9.99;100.00;102411.06;5027168;28;20682;-80
2022/10/07 00:19:06;;;;;;;15.80;5.55;;;;;;;10.00;100.00;102407.16;5028334;28;20949;-79
2022/10/07 00:21:35;;;;;;;15.77;5.70;;;;;;;9.98;100.00;102400.38;5022827;28;20053;-77
2022/10/07 00:24:03;;;;;;;16.98;6.63;;;;;;;9.94;100.00;102402.22;5020494;28;20060;-77
2022/10/07 00:26:31;;;;;;;17.02;6.20;;;;;;;9.90;100.00;102393.84;5019840;28;20869;-77
2022/10/07 00:28:59;;;;;;;16.58;5.18;;;;;;;9.88;100.00;102396.16;5022743;28;20127;-77
2022/10/07 00:31:31;;;;;;;15.93;5.25;;;;;;;9.81;100.00;102386.84;5024865;28;20056;-77
2022/10/07 00:33:58;;;;;;;21.95;6.20;;;;;;;9.79;100.00;102384.44;5025217;28;20059;-76
2022/10/07 00:36:27;;;;;;;16.60;5.78;;;;;;;9.78;100.00;102388.34;5022621;28;20053;-78
2022/10/07 00:39:03;;;;;;;17.15;5.68;;;;;;;9.79;100.00;102384.44;5027691;28;20052;-77
2022/10/07 00:41:33;;;;;;;19.00;6.03;;;;;;;9.71;100.00;102382.63;5017128;28;21039;-78
2022/10/07 00:44:40;;;;;;;16.98;5.78;;;;;;;9.66;100.00;102382.09;5024749;28;20146;-77
2022/10/07 00:47:24;;;;;;;16.08;5.30;;;;;;;9.67;100.00;102375.38;5020436;28;20060;-77
2022/10/07 00:50:01;;;;;;;19.20;5.65;;;;;;;9.61;100.00;102371.25;5021798;28;20056;-76
2022/10/07 00:52:32;;;;;;;15.77;5.55;;;;;;;9.55;100.00;102370.69;5021320;28;20100;-79
2022/10/07 00:55:03;;;;;;;15.68;4.93;;;;;;;9.52;100.00;102357.59;5021377;28;20061;-77
2022/10/07 00:57:30;;;;;;;13.88;5.68;;;;;;;9.55;100.00;102361.63;5023051;28;20053;-80
2022/10/07 00:59:58;;;;;;;16.33;5.25;;;;;;;9.51;100.00;102364.28;5021487;28;20076;-78
2022/10/07 01:02:27;;;;;;;18.50;5.95;;;;;;;9.43;100.00;102343.13;5021902;28;20045;-78
2022/10/07 01:04:57;;;;;;;17.35;5.53;;;;;;;9.51;100.00;102355.97;5020392;28;20076;-79
2022/10/07 01:07:25;;;;;;;15.52;5.47;;;;;;;9.48;100.00;102361.41;5020276;28;20048;-76
2022/10/07 01:09:53;;;;;;;16.13;5.97;;;;;;;9.47;100.00;102349.56;5022629;28;20580;-77
2022/10/07 01:12:28;;;;;;;20.15;5.80;;;;;;;9.46;100.00;102344.38;5020009;28;20500;-78
2022/10/07 01:15:09;;;;;;;20.02;6.60;;;;;;;9.44;100.00;102339.19;5016396;28;20109;-77
2022/10/07 01:17:42;;;;;;;17.73;5.28;;;;;;;9.47;100.00;102348.75;5019907;28;20052;-77
2022/10/07 01:20:45;;;;;;;24.83;5.68;;;;;;;9.44;100.00;102344.72;5023254;28;20819;-77
2022/10/07 01:23:24;;;;;;;17.80;6.28;;;;;;;9.46;100.00;102344.38;5017516;28;20056;-78
2022/10/07 01:26:10;;;;;;;21.48;6.30;;;;;;;9.43;100.00;102336.78;5027742;28;20060;-77
2022/10/07 01:28:47;;;;;;;17.88;5.50;;;;;;;9.42;100.00;102330.44;5026124;28;20054;-78
2022/10/07 01:31:20;;;;;;;15.88;5.22;;;;;;;9.40;100.00;102323.66;5021906;28;20068;-76
2022/10/07 01:33:50;;;;;;;15.32;5.63;;;;;;;9.41;100.00;102326.09;5021458;28;20556;-76
2022/10/07 01:36:20;;;;;;;20.08;6.10;;;;;;;9.34;100.00;102314.00;5025589;28;20056;-77
2022/10/07 01:38:54;;;;;;;17.05;4.50;;;;;;;9.32;100.00;102319.09;5023027;28;20066;-77
2022/10/07 01:41:22;;;;;;;18.00;5.45;;;;;;;9.29;100.00;102308.75;5026581;28;20069;-77
2022/10/07 01:43:52;;;;;;;18.58;5.50;;;;;;;9.25;100.00;102305.88;5030346;28;20055;-79
2022/10/07 01:46:23;;;;;;;17.27;5.47;;;;;;;9.25;100.00;102303.09;5027880;28;20053;-78
2022/10/07 01:48:53;;;;;;;17.38;6.13;;;;;;;9.29;100.00;102303.22;5025587;28;20887;-78
2022/10/07 01:51:23;;;;;;;21.52;5.65;;;;;;;9.26;100.00;102298.41;5024953;28;20052;-77
2022/10/07 01:54:19;;;;;;;16.48;5.22;;;;;;;9.19;100.00;102282.44;5023971;28;20056;-76
2022/10/07 01:57:26;;;;;;;15.80;5.38;;;;;;;9.20;100.00;102286.81;5029646;28;20066;-78
2022/10/07 02:00:07;;;;;;;17.73;5.20;;;;;;;9.18;100.00;102288.31;5010995;28;20489;-76
2022/10/07 02:02:42;;;;;;;15.70;5.15;;;;;;;9.17;100.00;102292.19;5046080;28;20059;-76
2022/10/07 02:05:12;;;;;;;17.30;5.90;;;;;;;9.15;100.00;102287.03;5044818;28;20110;-77
2022/10/07 02:07:58;;;;;;;13.57;5.15;;;;;;;9.12;100.00;102296.03;5044380;28;20052;-77
2022/10/07 02:10:31;;;;;;;19.33;6.20;;;;;;;9.10;100.00;102286.47;5047166;28;20064;-76
2022/10/07 02:13:34;;;;;;;16.77;5.30;;;;;;;9.09;100.00;102282.13;5046079;28;20421;-76
2022/10/07 02:16:26;;;;;;;14.18;4.45;;;;;;;9.12;100.00;102287.75;5046153;28;20538;-77
2022/10/07 02:18:53;;;;;;;12.20;4.50;;;;;;;9.13;100.00;102277.50;5044330;28;20049;-76
2022/10/07 02:21:23;;;;;;;14.13;5.80;;;;;;;9.13;100.00;102274.72;5046719;28;20885;-76
2022/10/07 02:23:55;;;;;;;16.67;4.68;;;;;;;9.14;100.00;102276.31;5048562;28;20059;-77
2022/10/07 02:26:24;;;;;;;15.27;5.85;;;;;;;9.08;100.00;102280.50;5046622;28;20424;-76
2022/10/07 02:28:53;;;;;;;16.13;4.93;;;;;;;9.04;100.00;102269.34;5049479;28;20041;-76
2022/10/07 02:31:25;;;;;;;14.45;4.95;;;;;;;9.03;100.00;102266.94;5044151;28;20063;-77
2022/10/07 02:33:55;;;;;;;14.10;5.93;;;;;;;8.98;100.00;102253.38;5047823;28;20111;-77
2022/10/07 02:36:31;;;;;;;14.70;5.00;;;;;;;8.94;100.00;102256.03;5047540;28;20049;-78
2022/10/07 02:39:00;;;;;;;17.73;5.95;;;;;;;8.92;100.00;102252.84;5048594;28;20044;-77
2022/10/07 02:41:44;;;;;;;14.10;5.15;;;;;;;8.92;100.00;102252.03;5044811;28;20049;-77
2022/10/07 02:44:24;;;;;;;13.52;4.90;;;;;;;8.91;100.00;102248.44;5038647;28;20057;-76
2022/10/07 02:47:10;;;;;;;17.52;4.78;;;;;;;8.91;100.00;102250.41;5046606;28;20060;-77
2022/10/07 02:49:40;;;;;;;16.23;4.40;;;;;;;8.87;100.00;102244.00;5045478;28;20037;-77
2022/10/07 02:52:12;;;;;;;17.48;4.97;;;;;;;8.83;100.00;102240.31;5048218;28;20049;-77
2022/10/07 02:54:46;;;;;;;15.93;5.30;;;;;;;8.86;100.00;102239.59;5046678;28;20063;-76
2022/10/07 02:57:17;;;;;;;15.63;4.95;;;;;;;8.88;100.00;102240.84;5047224;28;20071;-78
2022/10/07 02:59:47;;;;;;;13.13;4.40;;;;;;;8.89;100.00;102238.91;5046627;28;20575;-76
2022/10/07 03:02:23;;;;;;;16.20;4.70;;;;;;;8.84;100.00;102231.69;5047531;28;20049;-76
2022/10/07 03:04:50;;;;;;;19.73;5.60;;;;;;;8.87;100.00;102236.50;5046872;28;20064;-76
2022/10/07 03:07:16;;;;;;;15.10;5.35;;;;;;;8.86;100.00;102234.09;5048680;28;20060;-77
2022/10/07 03:09:43;;;;;;;18.13;5.30;;;;;;;8.83;100.00;102220.97;5046160;28;20052;-77
2022/10/07 03:12:10;;;;;;;12.43;5.03;;;;;;;8.81;100.00;102217.78;5047732;28;20535;-76
2022/10/07 03:14:39;;;;;;;14.93;5.15;;;;;;;8.81;100.00;102224.09;5048234;28;20060;-77
2022/10/07 03:17:06;;;;;;;14.00;4.90;;;;;;;8.81;100.00;102220.53;5046079;28;20056;-76
2022/10/07 03:19:32;;;;;;;17.63;5.53;;;;;;;8.83;100.00;102226.50;5047634;28;20518;-76
2022/10/07 03:21:59;;;;;;;18.25;5.72;;;;;;;8.87;100.00;102219.16;5045869;28;20057;-76
2022/10/07 03:24:25;;;;;;;14.18;5.85;;;;;;;8.83;100.00;102218.22;5047804;28;20649;-77
2022/10/07 03:26:52;;;;;;;22.55;5.68;;;;;;;8.84;100.00;102217.09;5046518;28;20048;-77
2022/10/07 03:29:18;;;;;;;16.90;5.85;;;;;;;8.86;100.00;102207.31;5047685;28;20044;-77
2022/10/07 03:31:45;;;;;;;16.83;5.47;;;;;;;8.89;100.00;102201.06;5045873;28;20475;-76
2022/10/07 03:34:11;;;;;;;17.60;5.90;;;;;;;8.96;100.00;102201.28;5049157;28;20059;-77
2022/10/07 03:36:38;;;;;;;15.82;5.35;;;;;;;9.02;100.00;102199.06;5045204;28;20056;-76
2022/10/07 03:39:04;;;;;;;18.08;5.28;;;;;;;8.99;100.00;102195.06;5047784;28;20053;-77
2022/10/07 03:41:31;;;;;;;17.27;4.95;;;;;;;9.05;100.00;102201.91;5038397;28;20049;-76
2022/10/07 03:43:58;;;;;;;18.60;5.53;;;;;;;9.02;100.00;102199.88;5045296;28;20064;-76
2022/10/07 03:46:24;;;;;;;16.33;4.88;;;;;;;9.07;100.00;102201.56;5045510;28;20049;-75
2022/10/07 03:48:51;;;;;;;17.88;5.60;;;;;;;9.07;100.00;102198.81;5046546;28;20136;-77
2022/10/07 03:51:17;;;;;;;16.50;4.95;;;;;;;9.11;100.00;102200.53;5040279;28;20045;-76
2022/10/07 03:53:44;;;;;;;19.38;5.57;;;;;;;9.11;100.00;102196.97;5047474;28;20045;-76
2022/10/07 03:56:10;;;;;;;18.23;6.15;;;;;;;9.09;100.00;102199.28;5044556;28;20054;-75
2022/10/07 03:58:38;;;;;;;14.68;5.20;;;;;;;9.09;100.00;102197.31;5045007;28;20045;-77
2022/10/07 04:01:05;;;;;;;19.80;5.55;;;;;;;9.09;100.00;102186.28;5044413;28;20076;-77
2022/10/07 04:03:32;;;;;;;15.95;4.97;;;;;;;9.11;100.00;102194.22;5044012;28;20053;-77
2022/10/07 04:05:59;;;;;;;19.52;5.30;;;;;;;9.05;100.00;102188.13;5045950;28;20143;-76
2022/10/07 04:08:31;;;;;;;14.68;5.18;;;;;;;9.02;100.00;102183.31;5048152;28;20063;-75
2022/10/07 04:10:59;;;;;;;15.82;5.30;;;;;;;8.97;100.00;102179.97;5041394;28;20835;-76
2022/10/07 04:13:26;;;;;;;16.52;5.15;;;;;;;8.94;100.00;102187.00;5046960;28;20049;-77
2022/10/07 04:15:53;;;;;;;19.85;5.30;;;;;;;8.93;100.00;102182.66;5046878;28;20049;-75
2022/10/07 04:18:20;;;;;;;15.38;5.22;;;;;;;8.92;100.00;102183.00;5045951;28;20509;-77
2022/10/07 04:20:47;;;;;;;20.02;5.22;;;;;;;8.87;100.00;102181.28;5045904;28;20047;-76
2022/10/07 04:23:14;;;;;;;18.05;5.45;;;;;;;8.85;100.00;102169.00;5045287;28;20463;-76
2022/10/07 04:25:45;;;;;;;13.90;5.30;;;;;;;8.85;100.00;102167.06;5045327;28;20060;-77
2022/10/07 04:28:24;;;;;;;16.40;4.82;;;;;;;8.88;100.00;102165.53;5046099;28;20056;-76
2022/10/07 04:30:52;;;;;;;19.38;5.85;;;;;;;8.84;100.00;102162.66;5045539;28;20041;-76
2022/10/07 04:33:22;;;;;;;15.00;5.20;;;;;;;8.80;100.00;102169.22;5046027;28;20068;-77
2022/10/07 04:35:50;;;;;;;16.67;4.88;;;;;;;8.81;100.00;102168.09;5048210;28;20049;-77
2022/10/07 04:38:17;;;;;;;16.92;6.07;;;;;;;8.75;100.00;102170.31;5045060;28;20516;-77
2022/10/07 04:40:46;;;;;;;19.45;7.03;;;;;;;8.70;100.00;102159.50;5044092;28;20060;-77
2022/10/07 04:43:19;;;;;;;18.63;6.82;;;;;;;8.70;100.00;102156.75;5046809;28;20041;-77
2022/10/07 04:45:54;;;;;;;21.88;7.28;;;;;;;8.73;100.00;102169.84;5043737;28;20052;-77
2022/10/07 04:48:22;;;;;;;23.33;6.75;;;;;;;8.75;100.00;102163.97;5049415;28;20052;-76
2022/10/07 04:50:50;;;;;;;19.80;6.05;;;;;;;8.81;100.00;102165.34;5045217;28;20045;-77
2022/10/07 04:53:18;;;;;;;15.27;5.80;;;;;;;8.78;100.00;102163.28;5047348;28;20080;-74
2022/10/07 04:55:47;;;;;;;20.95;7.78;;;;;;;8.80;100.00;102164.53;5046299;28;20075;-76
2022/10/07 04:58:14;;;;;;;17.55;6.63;;;;;;;8.80;100.00;102158.19;5046628;28;20056;-77
2022/10/07 05:00:43;;;;;;;19.35;6.68;;;;;;;8.78;100.00;102155.00;5049422;28;20065;-75
2022/10/07 05:03:11;;;;;;;23.80;8.35;;;;;;;8.78;100.00;102164.06;5044792;28;20060;-76
2022/10/07 05:05:45;;;;;;;26.08;9.57;;;;;;;8.79;100.00;102157.41;5048546;28;20060;-77
2022/10/07 05:08:14;;;;;;;23.47;7.30;;;;;;;8.79;100.00;102151.06;5048231;28;20075;-76
2022/10/07 05:10:41;;;;;;;27.83;9.20;;;;;;;8.76;100.00;102147.06;5045485;28;20060;-78
2022/10/07 05:13:11;;;;;;;26.25;7.95;;;;;;;8.71;100.00;102143.75;5048970;28;20567;-77
2022/10/07 05:15:46;;;;;;;21.38;8.32;;;;;;;8.69;100.00;102144.09;5041738;28;20044;-76
2022/10/07 05:18:14;;;;;;;16.15;6.45;;;;;;;8.67;100.00;102140.09;5047213;28;20060;-77
2022/10/07 05:20:42;;;;;;;18.38;6.55;;;;;;;8.67;100.00;102146.41;5048078;28;20052;-76
2022/10/07 05:23:08;;;;;;;21.85;8.98;;;;;;;8.64;100.00;102138.81;5049960;28;20067;-77
2022/10/07 05:25:35;;;;;;;22.27;10.13;;;;;;;8.66;100.00;102146.75;5042979;28;20424;-77
2022/10/07 05:28:01;;;;;;;21.23;7.28;;;;;;;8.64;100.00;102132.53;5049238;28;20053;-78
2022/10/07 05:30:28;;;;;;;16.65;6.40;;;;;;;8.61;100.00;102139.50;5047241;28;20435;-77
2022/10/07 05:32:55;;;;;;;19.08;7.75;;;;;;;8.61;100.00;102136.75;5048872;28;20041;-75
2022/10/07 05:35:21;;;;;;;19.25;6.55;;;;;;;8.58;100.00;102136.66;5057518;28;20053;-78
2022/10/07 05:37:52;;;;;;;24.63;6.63;;;;;;;8.55;100.00;102132.66;5046973;28;20106;-76
2022/10/07 05:40:20;;;;;;;18.17;6.68;;;;;;;8.56;100.00;102125.97;5044624;28;20053;-76
2022/10/07 05:42:46;;;;;;;18.15;5.75;;;;;;;8.54;100.00;102128.28;5045439;28;20095;-74
2022/10/07 05:45:13;;;;;;;21.00;5.95;;;;;;;8.55;100.00;102131.84;5043730;28;20171;-78
2022/10/07 05:47:39;;;;;;;23.38;7.55;;;;;;;8.56;100.00;102130.69;5045523;28;20064;-78
2022/10/07 05:50:07;;;;;;;22.50;8.05;;;;;;;8.59;100.00;102133.56;5045002;28;20048;-78
2022/10/07 05:52:34;;;;;;;19.92;7.25;;;;;;;8.56;100.00;102123.22;5044493;28;20064;-75
2022/10/07 05:55:01;;;;;;;20.60;6.13;;;;;;;8.55;100.00;102118.88;5042819;28;20053;-76
2022/10/07 05:57:27;;;;;;;18.10;6.43;;;;;;;8.54;100.00;102117.25;5043855;28;20049;-75
2022/10/07 05:59:55;;;;;;;22.23;7.72;;;;;;;8.54;100.00;102121.97;5040725;28;20041;-77
2022/10/07 06:02:21;;;;;;;17.60;6.13;;;;;;;8.50;100.00;102118.31;5042143;28;20045;-77
2022/10/07 06:04:48;;;;;;;20.88;7.10;;;;;;;8.48;100.00;102112.31;5041985;28;20488;-77
2022/10/07 06:07:16;;;;;;;19.48;6.05;;;;;;;8.46;100.00;102109.91;5046595;28;20109;-80
2022/10/07 06:15:18;;;;;;;22.27;6.00;;;;;;;8.50;100.00;102108.06;5046349;28;20037;-78
2022/10/07 06:17:44;;;;;;;18.10;6.60;;;;;;;8.53;100.00;102110.13;5044415;28;20306;-78
2022/10/07 06:20:13;;;;;;;26.33;7.40;;;;;;;8.55;100.00;102110.59;5044062;28;20052;-78
2022/10/07 06:22:40;;;;;;;21.17;7.93;;;;;;;8.56;100.00;102109.44;5049336;28;20536;-79
2022/10/07 06:25:07;;;;;;;23.23;7.97;;;;;;;8.62;100.00;102107.22;5043895;28;20049;-78
2022/10/07 06:27:34;;;;;;;20.95;7.93;;;;;;;8.66;100.00;102100.66;5041598;28;20056;-77
2022/10/07 06:30:02;;;;;;;26.35;6.15;;;;;;;8.70;100.00;102101.56;5042455;28;20047;-77
2022/10/07 06:32:31;;;;;;;15.15;5.65;;;;;;;8.74;100.00;102105.22;5045590;28;21038;-77
2022/10/07 06:34:58;;;;;;;17.60;6.65;;;;;;;8.76;100.00;102100.16;5044940;28;20060;-77
2022/10/07 06:37:24;;;;;;;18.60;5.10;;;;;;;8.82;100.00;102095.19;5050330;28;20057;-80
2022/10/07 06:39:51;;;;;;;19.98;6.80;;;;;;;8.91;100.00;102112.41;5051491;28;20058;-77
2022/10/07 06:42:22;;;;;;;18.13;5.45;;;;;;;8.97;100.00;102108.19;5048402;28;20043;-79
2022/10/07 06:44:52;;;;;;;22.25;5.63;;;;;;;9.04;100.00;102108.44;5048934;28;20055;-77
2022/10/07 06:47:20;;;;;;;18.85;5.95;;;;;;;9.10;100.00;102102.28;5050188;28;20048;-71
2022/10/07 06:49:46;;;;;;;18.85;5.88;;;;;;;9.15;100.00;102104.75;5046245;28;20044;-73
2022/10/07 06:52:13;;;;;;;16.90;6.50;;;;;;;9.21;100.00;102100.59;5048438;28;20053;-74
2022/10/07 06:54:39;;;;;;;15.95;5.72;;;;;;;9.30;100.00;102105.94;5043513;28;20049;-74
2022/10/07 06:57:06;;;;;;;22.83;6.28;;;;;;;9.38;100.00;102107.75;5047573;28;20057;-76
2022/10/07 06:59:54;;;;;;;20.50;5.63;;;;;;;9.45;100.00;102105.16;5043999;28;20045;-73
2022/10/07 07:02:20;;;;;;;19.77;6.13;;;;;;;9.51;100.00;102100.97;5047197;28;20053;-76
2022/10/07 07:04:47;;;;;;;19.13;5.63;;;;;;;9.62;100.00;102107.56;5045017;28;20398;-76
2022/10/07 07:07:14;;;;;;;19.90;6.38;;;;;;;9.73;100.00;102116.91;5048087;28;20076;-75
2022/10/07 07:09:40;;;;;;;18.10;6.38;;;;;;;9.78;100.00;102114.69;5043979;28;20057;-73
2022/10/07 07:12:07;;;;;;;22.80;6.47;;;;;;;9.90;100.00;102114.59;5048082;28;20053;-75
2022/10/07 07:14:34;;;;;;;15.77;6.45;;;;;;;10.05;100.00;102115.69;5046671;28;20106;-74
2022/10/07 07:17:01;;;;;;;23.67;5.40;;;;;;;10.16;100.00;102112.06;5044028;28;20053;-74
2022/10/07 07:19:28;;;;;;;22.95;5.97;;;;;;;10.30;100.00;102115.13;5045672;28;20048;-74
2022/10/07 07:21:55;;;;;;;23.77;8.35;;;;;;;10.46;100.00;102109.53;5043991;28;20049;-73
2022/10/07 07:24:21;;;;;;;25.85;7.85;;;;;;;10.61;100.00;102108.69;5043274;28;20123;-76
2022/10/07 07:26:48;;;;;;;22.52;6.82;;;;;;;10.78;100.00;102119.31;5043185;28;20045;-73
2022/10/07 07:29:15;;;;;;;24.65;6.22;;;;;;;10.95;100.00;102109.75;5042771;28;20049;-73
2022/10/07 07:31:42;;;;;;;16.77;5.60;;;;;;;11.14;100.00;102118.03;5044776;28;20122;-75
2022/10/07 07:34:11;;;;;;;17.38;5.10;;;;;;;11.25;100.00;102108.75;5046803;28;20513;-74
2022/10/07 07:36:42;;;;;;;22.20;5.80;;;;;;;11.42;100.00;102113.00;5047027;28;20056;-75
2022/10/07 07:39:11;;;;;;;19.33;4.50;;;;;;;11.53;100.00;102105.66;5048397;28;20041;-75
2022/10/07 07:41:40;;;;;;;20.95;4.82;;;;;;;11.67;100.00;102108.72;5046268;28;20049;-74
2022/10/07 07:44:10;;;;;;;15.77;4.85;;;;;;;11.85;100.00;102104.25;5043278;28;20385;-75
2022/10/07 07:46:40;;;;;;;16.00;4.68;;;;;;;11.95;100.00;102106.41;5048352;28;20064;-74
2022/10/07 07:49:09;;;;;;;19.05;4.72;;;;;;;12.10;100.00;102100.69;5049510;28;20056;-73
2022/10/07 07:51:36;;;;;;;17.85;3.83;;;;;;;12.25;100.00;102094.16;5047250;28;20049;-73
2022/10/07 07:54:03;;;;;;;18.60;5.28;;;;;;;12.35;100.00;102093.50;5044969;28;20053;-73
2022/10/07 07:56:32;;;;;;;16.73;4.65;;;;;;;12.50;100.00;102092.53;5044824;28;20497;-75
2022/10/07 07:59:00;;;;;;;17.27;4.80;;;;;;;12.67;100.00;102096.69;5039752;28;20049;-75
2022/10/07 08:01:30;;;;;;;22.52;4.85;;;;;;;12.81;100.00;102099.63;5042914;28;20049;-74
2022/10/07 08:03:59;;;;;;;11.25;4.05;;;;;;;12.96;100.00;102104.16;5047779;28;20114;-73
2022/10/07 08:06:27;;;;;;;20.02;4.68;;;;;;;13.10;100.00;102098.81;5047097;28;20052;-76
2022/10/07 08:08:56;;;;;;;21.63;5.32;;;;;;;13.26;100.00;102104.13;5048476;28;20041;-73
2022/10/07 08:11:23;;;;;;;16.48;3.35;;;;;;;13.33;100.00;102102.19;5046784;28;20067;-75
2022/10/07 08:13:50;;;;;;;13.57;4.13;;;;;;;13.42;100.00;102088.78;5048436;28;20075;-74
2022/10/07 08:16:19;;;;;;;17.88;4.45;;;;;;;13.63;100.00;102094.53;5047921;28;20056;-75
2022/10/07 08:18:48;;;;;;;21.35;5.10;;;;;;;13.71;100.00;102092.63;5046028;28;20050;-74
2022/10/07 08:21:18;;;;;;;21.70;4.70;;;;;;;13.84;100.00;102088.34;5044176;28;20501;-76
2022/10/07 08:23:46;;;;;;;14.85;3.70;;;;;;;13.99;100.00;102099.19;5046470;28;20044;-74
2022/10/07 08:26:13;;;;;;;21.70;3.97;;;;;;;14.07;100.00;102098.03;5047152;28;20067;-74
2022/10/07 08:28:40;;;;;;;9.00;2.38;;;;;;;14.08;100.00;102085.72;5049528;28;20056;-74
2022/10/07 08:31:10;;;;;;;12.10;2.72;;;;;;;14.30;100.00;102084.69;5046507;28;20544;-76
2022/10/07 08:33:39;;;;;;;7.93;1.90;;;;;;;14.45;100.00;102088.34;5049403;28;20082;-74
2022/10/07 08:36:09;;;;;;;12.02;2.92;;;;;;;14.64;100.00;102079.66;5045689;28;20045;-75
2022/10/07 08:38:38;;;;;;;16.27;2.80;;;;;;;14.72;100.00;102087.66;5046274;28;20500;-73
2022/10/07 08:41:07;;;;;;;1.92;1.00;;;;;;;14.85;100.00;102082.53;5041803;28;20044;-73
2022/10/07 08:43:39;;;;;;;12.90;3.08;;;;;;;14.95;100.00;102079.00;5030117;28;20060;-74
2022/10/07 08:46:12;;;;;;;14.07;2.53;;;;;;;15.10;100.00;102069.44;5055580;28;20056;-75
2022/10/07 08:48:41;;;;;;;11.10;2.05;;;;;;;15.17;100.00;102075.84;5040914;28;20071;-77
2022/10/07 08:51:39;;;;;;;2.38;1.10;;;;;;;15.31;100.00;102073.06;5040381;28;20048;-74
2022/10/07 08:54:12;;;;;;;5.35;1.92;;;;;;;15.35;100.00;102061.91;5038640;28;20060;-75
2022/10/07 08:56:40;;;;;;;5.55;2.00;;;;;;;15.42;100.00;102067.50;5041720;28;20041;-76
2022/10/07 08:59:21;;;;;;;0.93;0.85;;;;;;;15.64;100.00;102062.72;5029471;28;20053;-78
2022/10/07 09:02:12;;;;;;;6.07;1.50;;;;;;;15.68;100.00;102064.34;5034386;28;20455;-73
2022/10/07 09:04:57;;;;;;;10.15;2.10;;;;;;;15.83;100.00;102053.94;5036794;28;20045;-74
2022/10/07 09:07:33;;;;;;;6.47;1.57;;;;;;;15.86;99.49;102053.16;5039228;28;20049;-73
2022/10/07 09:10:08;;;;;;;;;;;;;;;16.03;99.52;102049.53;5037002;28;20048;-74
2022/10/07 09:12:43;;;;;;;9.65;2.13;;;;;;;16.04;96.64;102051.94;5041840;28;19978;-74
2022/10/07 09:15:36;;;;;;;10.83;1.80;;;;;;;16.08;95.91;102037.94;5044618;28;20056;-74
2022/10/07 09:18:15;;;;;;;5.88;1.35;;;;;;;16.28;94.42;102039.06;5030396;28;20779;-75
2022/10/07 09:20:45;;;;;;;2.53;1.02;;;;;;;16.30;94.35;102037.47;5039433;28;20055;-75
2022/10/07 09:23:14;;;;;;;21.08;1.52;;;;;;;16.45;92.76;102032.66;5046064;28;20057;-74
2022/10/07 09:25:42;;;;;;;14.45;2.63;;;;;;;16.56;92.98;102023.03;5047567;28;20064;-74
2022/10/07 09:28:14;;;;;;;8.45;1.50;;;;;;;16.55;90.83;102032.63;5043934;28;20059;-75
2022/10/07 09:30:41;;;;;;;4.60;0.95;;;;;;;16.72;91.74;102033.72;5044534;28;20130;-75
2022/10/07 09:33:14;;;;;;;16.10;3.05;;;;;;;16.67;87.51;102026.56;5042921;28;20052;-77
2022/10/07 09:35:44;;;;;;;8.55;1.90;;;;;;;16.67;86.95;102025.78;5041033;28;20053;-75
2022/10/07 09:38:10;;;;;;;5.35;1.92;;;;;;;16.72;87.63;102028.13;5042372;28;20053;-76
2022/10/07 09:43:26;;;;;;;9.68;2.03;;;;;;;16.95;86.32;102008.81;5051086;28;20052;-74
2022/10/07 09:45:55;;;;;;;9.25;1.52;;;;;;;16.94;85.30;102012.84;5049691;28;20049;-74
2022/10/07 09:48:26;;;;;;;14.55;2.15;;;;;;;17.08;85.15;102005.13;5047607;28;20068;-73
2022/10/07 09:51:12;;;;;;;4.32;1.50;;;;;;;17.12;83.67;102002.31;5042235;28;20162;-74
2022/10/07 09:53:57;;;;;;;11.43;1.85;;;;;;;17.21;83.58;102005.44;5037256;28;20060;-75
2022/10/07 09:56:42;;;;;;;5.65;0.73;;;;;;;17.37;84.22;102003.69;5016435;28;20061;-77
2022/10/07 09:59:31;;;;;;;7.23;1.57;;;;;;;17.46;82.30;101994.84;5017548;28;20049;-77
2022/10/07 10:02:16;;;;;;;14.95;2.75;;;;;;;17.28;81.02;102019.38;5019209;28;20720;-77
2022/10/07 10:04:47;;;;;;;8.93;2.50;;;;;;;17.65;82.97;102002.69;5013712;28;20075;-77
2022/10/07 10:07:29;;;;;;;13.35;2.45;;;;;;;17.79;79.46;101996.94;5030134;28;20572;-76
2022/10/07 10:10:02;;;;;;;11.10;2.03;;;;;;;17.78;78.53;101995.31;5015758;28;21190;-77
2022/10/07 10:12:33;;;;;;;11.48;2.67;;;;;;;17.77;77.53;102002.94;5032583;28;20056;-77
2022/10/07 10:15:22;;;;;;;4.22;1.48;;;;;;;17.90;75.36;101997.59;5017799;28;22097;-79
2022/10/07 10:17:49;;;;;;;14.65;2.80;;;;;;;18.15;75.90;101992.50;5031807;28;20049;-76
2022/10/07 10:20:22;;;;;;;11.85;2.00;;;;;;;18.24;76.38;101990.00;5019576;28;20131;-77
2022/10/07 10:22:49;;;;;;;6.10;1.83;;;;;;;18.41;74.95;101983.41;5018607;28;20053;-78
2022/10/07 10:28:33;;;;;;;10.43;2.50;;;;;;;18.68;71.55;101980.63;5030443;28;20040;-75
2022/10/07 10:31:13;;;;;;;8.85;1.83;;;;;;;18.59;70.22;101969.94;5023784;28;20857;-77
2022/10/07 10:33:59;;;;;;;3.30;1.33;;;;;;;18.84;70.90;101963.97;5018626;28;20817;-75
2022/10/07 10:36:30;;;;;;;4.82;1.67;;;;;;;18.72;68.24;101962.53;5024636;28;20060;-74
2022/10/07 10:39:02;;;;;;;5.75;1.33;;;;;;;18.63;68.13;101962.25;5027681;28;20049;-77
2022/10/07 10:41:49;;;;;;;8.27;1.48;;;;;;;18.76;67.43;101956.91;5026237;28;20067;-78
2022/10/07 10:44:31;;;;;;;14.80;2.50;;;;;;;19.30;69.08;101950.03;5028988;28;20059;-76
2022/10/07 10:47:00;;;;;;;6.53;1.88;;;;;;;19.13;66.37;101946.25;5016065;28;20174;-77
2022/10/07 10:49:41;;;;;;;13.65;2.50;;;;;;;19.29;65.58;101946.41;5027785;28;20088;-78
2022/10/07 10:52:19;;;;;;;20.45;3.30;;;;;;;19.65;67.36;101935.34;5024687;28;20060;-76
2022/10/07 10:55:04;;;;;;;13.25;2.75;;;;;;;19.96;65.42;101920.66;5030279;28;20060;-79
2022/10/07 10:57:46;;;;;;;0.82;0.55;;;;;;;20.12;64.00;101917.91;5015510;28;20044;-76
2022/10/07 11:00:17;;;;;;;16.38;2.35;;;;;;;20.05;62.84;101920.84;5012056;28;20053;-75
2022/10/07 11:03:24;;;;;;;6.50;1.45;;;;;;;19.77;59.78;101913.00;5019347;28;20725;-78
2022/10/07 11:05:53;;;;;;;10.10;2.55;;;;;;;19.97;59.54;101919.44;5022839;28;20068;-74
2022/10/07 11:08:25;;;;;;;2.10;1.17;;;;;;;19.96;59.99;101909.41;5033032;28;20056;-78
2022/10/07 11:11:16;;;;;;;8.30;1.77;;;;;;;19.85;59.43;101902.44;5030231;28;20060;-78
2022/10/07 11:13:49;;;;;;;11.63;1.75;;;;;;;20.15;58.69;101894.56;5027933;28;20057;-77
2022/10/07 11:16:29;;;;;;;6.45;1.58;;;;;;;20.00;57.73;101904.50;5032120;28;20052;-74
2022/10/07 11:19:18;;;;;;;3.20;1.50;;;;;;;19.94;57.16;101871.72;5025354;28;20056;-77
2022/10/07 11:21:53;;;;;;;11.43;1.55;;;;;;;20.12;58.14;101883.44;5037810;28;20860;-79
2022/10/07 11:24:40;;;;;;;;;;;;;;;20.18;56.80;101881.66;5027933;28;20056;-76
2022/10/07 11:27:25;;;;;;;;;;;;;;;20.49;59.42;101882.19;5025473;28;19925;-76
2022/10/07 11:30:05;;;;;;;7.72;1.40;;;;;;;20.33;57.22;101882.94;5021141;28;19925;-76
2022/10/07 11:32:43;;;;;;;13.60;1.98;;;;;;;20.48;57.59;101869.34;5022481;28;20056;-76
2022/10/07 11:35:31;;;;;;;4.47;1.00;;;;;;;20.36;56.91;101854.75;5015424;28;20057;-76
2022/10/07 11:38:13;;;;;;;2.65;1.02;;;;;;;20.32;55.14;101851.22;5013826;28;20102;-76
2022/10/07 11:40:45;;;;;;;5.38;1.10;;;;;;;20.20;56.81;101851.91;5018528;28;20057;-76
2022/10/07 11:43:21;;;;;;;2.72;1.15;;;;;;;20.25;57.41;101847.81;5014983;28;20068;-73
2022/10/07 11:45:53;;;;;;;4.63;1.10;;;;;;;20.40;55.58;101846.25;5021330;28;20056;-75
2022/10/07 11:48:40;;;;;;;4.25;1.58;;;;;;;20.72;55.68;101831.41;5023103;28;20516;-76
2022/10/07 11:51:16;;;;;;;6.80;0.77;;;;;;;20.59;54.97;101827.72;5015856;28;20044;-76